M I D A S
Marine Information and Data Acquisition System
Tripno 2026 of the Zeeleeuw from 2010-11-25 07:16:49 to 2010-11-25 15:35:39
Back to CruiseResearch ActivitiesStationsMapUnderway DataData graphs

EquipmentUnitsComment
TimeDGPSUTC
LatitudeDGPSDM.mWGS84
LongitudeDGPSDM.mWGS84
HeadingGyrodeg 
SOGDGPSknotsSpeed over ground
COGDGPSdegCourse over ground
DepthEcho soundermeters200 kHz
Missing or incorrect values are displayed as -999
Navigation data collected by the RV Zeeleeuw from 2010-11-25 07:11:19 to 2010-11-25 15:47:48
Time Latitude Longitude Heading SOG COG Depth
2010-11-25 07:12:24 51°13.662 2°55.959 127 -999 170 7.1
2010-11-25 07:13:24 51°13.662 2°55.959 126.9 -999 5 7.1
2010-11-25 07:14:24 51°13.662 2°55.958 128 -999 176 7.1
2010-11-25 07:15:24 51°13.662 2°55.959 128.3 -999 135 7.2
2010-11-25 07:16:24 51°13.663 2°55.959 127.9 -999 270 7.1
2010-11-25 07:17:24 51°13.663 2°55.96 127.2 -999 150 7.1
2010-11-25 07:18:24 51°13.663 2°55.96 127.6 -999 19 7.2
2010-11-25 07:19:24 51°13.663 2°55.96 128 -999 60 7.1
2010-11-25 07:20:24 51°13.664 2°55.961 128.4 -999 79 7.1
2010-11-25 07:21:24 51°13.66 2°55.962 124.5 0.1 101 7
2010-11-25 07:22:24 51°13.66 2°55.96 112.5 0.1 186 7
2010-11-25 07:23:24 51°13.665 2°55.944 107.5 2.4 295 7.3
2010-11-25 07:24:28 51°13.689 2°55.842 102.4 4.3 289 -999
2010-11-25 07:25:27 51°13.704 2°55.753 83.5 2.8 279 13
2010-11-25 07:26:25 51°13.707 2°55.722 43.4 1.6 248 12.3
2010-11-25 07:27:24 51°13.737 2°55.704 342.1 4.4 340 11.4
2010-11-25 07:28:25 51°13.843 2°55.626 335.5 7.9 335 11.1
2010-11-25 07:29:24 51°13.965 2°55.544 336.6 7.7 338 11.1
2010-11-25 07:30:25 51°14.081 2°55.465 335.7 7.3 337 10.9
2010-11-25 07:31:28 51°14.197 2°55.38 334.8 8 336 -999
2010-11-25 07:32:27 51°14.336 2°55.257 325.8 10.9 325 10.4
2010-11-25 07:33:27 51°14.494 2°55.064 321.3 12.5 323 10.4
2010-11-25 07:34:25 51°14.661 2°54.866 329.7 13.1 324 10.8
2010-11-25 07:35:24 51°14.84 2°54.675 333.8 13 330 11.3
2010-11-25 07:36:24 51°15.027 2°54.514 335.9 12.6 331 8.3
2010-11-25 07:37:24 51°15.207 2°54.359 337.6 12.2 333 8.6
2010-11-25 07:38:24 51°15.394 2°54.209 338.8 12.8 333 8.8
2010-11-25 07:39:24 51°15.581 2°54.053 335.1 12.9 327 9.5
2010-11-25 07:40:24 51°15.735 2°53.812 319.3 13.1 316 10.7
2010-11-25 07:41:24 51°15.893 2°53.562 313.3 13.5 308 10.6
2010-11-25 07:42:24 51°16.036 2°53.301 328.6 12.8 320 11.1
2010-11-25 07:43:24 51°16.214 2°53.114 336 12.9 329 11.1
2010-11-25 07:44:24 51°16.397 2°52.947 335.3 12.4 331 10.6
2010-11-25 07:45:24 51°16.581 2°52.78 335.4 12.6 333 11.2
2010-11-25 07:46:24 51°16.777 2°52.661 346.6 12.4 342 9
2010-11-25 07:47:24 51°16.976 2°52.56 346.7 12.8 341 9.1
2010-11-25 07:48:24 51°17.173 2°52.456 346.2 12.1 341 9.4
2010-11-25 07:49:24 51°17.37 2°52.352 347 12.4 344 9.1
2010-11-25 07:50:23 51°17.568 2°52.319 1.7 11.8 357 10.7
2010-11-25 07:51:24 51°17.76 2°52.304 1.5 10.6 357 10.5
2010-11-25 07:52:23 51°17.874 2°52.29 359.8 4.5 352 10.5
2010-11-25 07:53:24 51°17.969 2°52.268 -999 7.1 353 10
2010-11-25 07:54:24 51°18.09 2°52.25 359.9 7.4 356 11.1
2010-11-25 07:55:24 51°18.209 2°52.229 0.7 7.1 352 10.2
2010-11-25 07:56:23 51°18.318 2°52.214 4.7 6.1 358 11.2
2010-11-25 07:57:23 51°18.414 2°52.212 6.3 5.7 -999 10.3
2010-11-25 07:58:24 51°18.517 2°52.209 5.1 6.9 359 11.2
2010-11-25 07:59:24 51°18.631 2°52.208 5.4 6.8 -999 10.9
2010-11-25 08:00:23 51°18.741 2°52.203 5.3 7.2 358 11.5
2010-11-25 08:01:23 51°18.847 2°52.198 3.9 6 356 12.7
2010-11-25 08:02:24 51°18.948 2°52.192 5.8 5 1 12.9
2010-11-25 08:03:23 51°19.041 2°52.187 5.2 6.1 357 13.9
2010-11-25 08:04:24 51°19.148 2°52.182 6.2 6 357 14.3
2010-11-25 08:05:24 51°19.257 2°52.171 4.8 6.6 355 14
2010-11-25 08:06:24 51°19.364 2°52.158 4.6 6.2 355 15.8
2010-11-25 08:07:24 51°19.472 2°52.143 5.4 6.6 356 15.4
2010-11-25 08:08:24 51°19.572 2°52.129 5.9 5.9 355 15
2010-11-25 08:09:24 51°19.659 2°52.113 3.2 5.7 352 15
2010-11-25 08:10:23 51°19.758 2°52.097 5.8 6.2 358 16
2010-11-25 08:11:24 51°19.852 2°52.089 8.3 4.7 354 15.8
2010-11-25 08:12:23 51°19.934 2°52.075 4.7 5.2 353 15.9
2010-11-25 08:13:23 51°20.031 2°52.06 5.4 6.1 353 15
2010-11-25 08:14:23 51°20.132 2°52.046 5.4 6.1 355 14.2
2010-11-25 08:15:23 51°20.223 2°52.033 5.4 5.6 355 14.7
2010-11-25 08:16:23 51°20.309 2°52.02 5.7 4.7 350 13.7
2010-11-25 08:17:23 51°20.4 2°52.004 5.2 5.5 355 4.9
2010-11-25 08:18:24 51°20.502 2°51.987 4.8 6.4 353 12.5
2010-11-25 08:19:24 51°20.61 2°52.002 15.7 6.8 9 12.8
2010-11-25 08:20:24 51°20.714 2°52.033 17.7 6.2 9 13.5
2010-11-25 08:21:24 51°20.817 2°52.059 14.2 6.1 7 13.4
2010-11-25 08:22:24 51°20.905 2°52.08 14.9 5.5 7 13.2
2010-11-25 08:23:23 51°20.999 2°52.101 15.3 6.2 11 16.1
2010-11-25 08:24:23 51°21.089 2°52.129 15.2 5.3 9 14.9
2010-11-25 08:25:24 51°21.189 2°52.152 15.3 6.2 10 15.5
2010-11-25 08:26:24 51°21.291 2°52.182 14.7 5.8 9 18.2
2010-11-25 08:27:24 51°21.392 2°52.205 15 6.5 7 18.1
2010-11-25 08:28:24 51°21.492 2°52.231 16.2 6.1 9 19.2
2010-11-25 08:29:24 51°21.595 2°52.26 15.3 6.4 11 20.3
2010-11-25 08:30:24 51°21.701 2°52.288 14.1 6.5 9 21.2
2010-11-25 08:31:24 51°21.804 2°52.323 16.3 6 12 22.8
2010-11-25 08:32:24 51°21.905 2°52.355 15.5 5.7 14 23.5
2010-11-25 08:33:24 51°22.004 2°52.389 15.6 6.6 12 23.8
2010-11-25 08:34:23 51°22.115 2°52.429 15.6 6.9 13 23.1
2010-11-25 08:35:24 51°22.22 2°52.469 14.9 6.2 14 23.5
2010-11-25 08:36:23 51°22.322 2°52.505 15.2 6.4 12 22.9
2010-11-25 08:37:24 51°22.421 2°52.537 13.8 6.1 10 22.9
2010-11-25 08:38:24 51°22.522 2°52.572 14.6 6.1 10 21.7
2010-11-25 08:39:24 51°22.61 2°52.603 16.9 4.1 10 23.4
2010-11-25 08:40:24 51°22.693 2°52.63 15.2 5.5 10 21.2
2010-11-25 08:41:24 51°22.773 2°52.656 15.4 5.1 8 22.2
2010-11-25 08:42:24 51°22.869 2°52.688 16.6 6.1 14 22.4
2010-11-25 08:43:24 51°22.969 2°52.72 15.3 6.5 9 19.1
2010-11-25 08:44:23 51°23.082 2°52.76 15.8 7 14 22.2
2010-11-25 08:45:24 51°23.192 2°52.796 14.6 6.2 12 20.4
2010-11-25 08:46:24 51°23.294 2°52.832 14.7 6.2 12 20.2
2010-11-25 08:47:24 51°23.398 2°52.866 14.4 6.4 10 20.3
2010-11-25 08:48:24 51°23.492 2°52.902 15.4 5.8 15 20.3
2010-11-25 08:49:24 51°23.581 2°52.937 16.1 5.1 12 20
2010-11-25 08:50:24 51°23.671 2°52.967 15.8 6.1 12 20.6
2010-11-25 08:51:24 51°23.768 2°53 13.5 5 12 20.9
2010-11-25 08:52:24 51°23.854 2°53.029 14.8 5.6 13 18.6
2010-11-25 08:53:24 51°23.955 2°53.062 16.1 6.5 12 16.1
2010-11-25 08:54:24 51°24.053 2°53.093 11.9 5.9 10 18.4
2010-11-25 08:55:24 51°24.147 2°53.111 10.8 5.1 7 18.3
2010-11-25 08:56:24 51°24.24 2°53.127 11 5.6 7 16.8
2010-11-25 08:57:24 51°24.331 2°53.14 8.5 5.1 8 17.9
2010-11-25 08:58:24 51°24.408 2°53.137 4.7 5.3 357 16.7
2010-11-25 08:59:24 51°24.502 2°53.133 4.3 5.6 358 18.7
2010-11-25 09:00:24 51°24.607 2°53.129 5.8 6.4 1 17.4
2010-11-25 09:01:24 51°24.705 2°53.133 9.5 5.5 5 19.6
2010-11-25 09:02:24 51°24.8 2°53.149 10.8 6 7 17.2
2010-11-25 09:03:24 51°24.891 2°53.165 10.2 6 6 18.5
2010-11-25 09:04:24 51°24.985 2°53.18 10.5 6.3 6 17.9
2010-11-25 09:05:24 51°25.086 2°53.202 11.6 6.2 11 20.8
2010-11-25 09:06:24 51°25.187 2°53.224 10.6 6.3 6 22
2010-11-25 09:07:24 51°25.292 2°53.244 9.9 6.5 6 21.9
2010-11-25 09:08:24 51°25.399 2°53.265 9.9 6.2 8 22.5
2010-11-25 09:09:24 51°25.501 2°53.286 9.9 6.3 11 22.8
2010-11-25 09:10:24 51°25.576 2°53.303 10.2 4.6 6 22.9
2010-11-25 09:11:24 51°25.658 2°53.319 10.3 5.3 12 23.7
2010-11-25 09:12:24 51°25.751 2°53.334 10.3 5.5 7 26.1
2010-11-25 09:13:24 51°25.843 2°53.339 1.2 5.4 355 27.6
2010-11-25 09:14:24 51°25.935 2°53.317 357.8 5.5 351 27.1
2010-11-25 09:15:24 51°26.025 2°53.295 358.3 5.9 351 28.9
2010-11-25 09:16:24 51°26.114 2°53.273 358.2 5.6 351 30.2
2010-11-25 09:17:24 51°26.213 2°53.251 358.6 5.8 351 30.9
2010-11-25 09:18:24 51°26.315 2°53.228 358.7 5.8 352 30.9
2010-11-25 09:19:24 51°26.417 2°53.208 359.8 6 351 29.8
2010-11-25 09:20:24 51°26.519 2°53.185 359.1 5.9 352 29.2
2010-11-25 09:21:24 51°26.607 2°53.163 358.1 5.8 351 30.2
2010-11-25 09:22:24 51°26.701 2°53.14 359.4 5.1 350 31.4
2010-11-25 09:23:23 51°26.784 2°53.122 359.9 5.4 351 29.3
2010-11-25 09:24:24 51°26.88 2°53.101 358.8 5.7 353 29.1
2010-11-25 09:25:24 51°26.972 2°53.084 359.5 5.4 352 29.4
2010-11-25 09:26:24 51°27.06 2°53.07 1.5 5.5 355 27
2010-11-25 09:27:24 51°27.156 2°53.053 359.3 6 353 26.4
2010-11-25 09:28:24 51°27.246 2°53.034 358.8 5.8 353 24
2010-11-25 09:29:24 51°27.346 2°53.016 359.7 6.3 355 21.5
2010-11-25 09:30:24 51°27.438 2°53.001 357.6 5.5 353 21
2010-11-25 09:31:24 51°27.531 2°52.983 358 6.2 351 20.2
2010-11-25 09:32:24 51°27.63 2°52.962 358.9 5.7 350 19.6
2010-11-25 09:33:25 51°27.704 2°52.947 1.5 2.8 348 20.3
2010-11-25 09:34:24 51°27.758 2°52.932 359.1 4.5 350 18.7
2010-11-25 09:35:24 51°27.834 2°52.91 358.3 5.6 351 20.5
2010-11-25 09:36:24 51°27.926 2°52.889 359.5 4.6 352 -999
2010-11-25 09:37:24 51°28.01 2°52.864 358.6 5.8 347 22.1
2010-11-25 09:38:24 51°28.119 2°52.842 358.6 6.8 351 22.6
2010-11-25 09:39:24 51°28.249 2°52.814 359 8.3 353 21.8
2010-11-25 09:40:25 51°28.366 2°52.792 357.5 7 351 23
2010-11-25 09:41:23 51°28.487 2°52.763 358.4 7.6 350 24
2010-11-25 09:42:23 51°28.594 2°52.706 337.4 7.1 323 27.5
2010-11-25 09:43:24 51°28.648 2°52.511 290.9 9.2 280 27.3
2010-11-25 09:44:24 51°28.6 2°52.289 241.9 8.9 236 28
2010-11-25 09:45:24 51°28.479 2°52.152 200.4 8.7 205 27.9
2010-11-25 09:46:24 51°28.354 2°52.069 196 7.6 202 26.5
2010-11-25 09:47:24 51°28.237 2°52.003 195.1 7.3 203 25.8
2010-11-25 09:48:24 51°28.125 2°51.935 195.6 7.1 206 24.3
2010-11-25 09:49:23 51°28.016 2°51.867 198.2 7.2 207 22.6
2010-11-25 09:50:23 51°27.903 2°51.8 194.8 7.1 197 22.7
2010-11-25 09:51:24 51°27.792 2°51.736 193.2 7 197 20.4
2010-11-25 09:52:23 51°27.681 2°51.675 193.3 7.3 201 20.3
2010-11-25 09:53:23 51°27.569 2°51.612 194.5 7.2 201 18
2010-11-25 09:54:23 51°27.457 2°51.548 195.2 7.2 202 19.9
2010-11-25 09:55:23 51°27.347 2°51.485 196.7 7.1 201 20.1
2010-11-25 09:56:24 51°27.234 2°51.422 193.4 7.2 201 20.7
2010-11-25 09:57:24 51°27.123 2°51.366 193 6.7 192 22.2
2010-11-25 09:58:24 51°27.016 2°51.309 192.4 6.8 196 21.8
2010-11-25 09:59:23 51°26.908 2°51.285 173.7 6.7 183 24.4
2010-11-25 10:00:23 51°26.797 2°51.276 173.1 6.6 185 23.9
2010-11-25 10:01:24 51°26.684 2°51.264 174.4 6.9 189 25.1
2010-11-25 10:02:24 51°26.571 2°51.251 175 6.8 184 26.8
2010-11-25 10:03:24 51°26.46 2°51.237 175.3 6.7 184 27.1
2010-11-25 10:04:23 51°26.351 2°51.223 174.1 6.6 182 24.4
2010-11-25 10:05:24 51°26.237 2°51.208 174.8 6.8 182 23.8
2010-11-25 10:06:24 51°26.124 2°51.19 175.6 6.7 182 23.1
2010-11-25 10:07:24 51°26.012 2°51.172 174.1 6.5 182 23.3
2010-11-25 10:08:24 51°25.898 2°51.15 175.4 7 187 23.9
2010-11-25 10:09:23 51°25.786 2°51.126 175.9 6.9 189 23.3
2010-11-25 10:10:23 51°25.672 2°51.104 176.2 6.7 185 23.9
2010-11-25 10:11:23 51°25.558 2°51.08 175.9 6.8 187 22.9
2010-11-25 10:12:24 51°25.441 2°51.048 175.8 6.8 188 22.5
2010-11-25 10:13:23 51°25.329 2°51.02 175 7 189 23.7
2010-11-25 10:14:24 51°25.214 2°50.997 174.6 7 189 23.3
2010-11-25 10:15:23 51°25.102 2°50.971 174.8 6.9 190 23
2010-11-25 10:16:23 51°24.987 2°50.943 175.8 7.1 185 23.5
2010-11-25 10:17:23 51°24.873 2°50.914 176.5 7.1 190 23.5
2010-11-25 10:18:24 51°24.758 2°50.885 177.1 7 189 22.9
2010-11-25 10:19:23 51°24.645 2°50.858 175 6.8 188 22.9
2010-11-25 10:20:23 51°24.531 2°50.831 176.5 7 187 23
2010-11-25 10:21:24 51°24.415 2°50.805 174.2 6.8 184 22.2
2010-11-25 10:22:24 51°24.3 2°50.777 176.3 7.1 190 21.8
2010-11-25 10:23:23 51°24.188 2°50.751 174.6 7.1 188 22.6
2010-11-25 10:24:24 51°24.072 2°50.727 175.1 7 190 22.1
2010-11-25 10:25:24 51°23.958 2°50.702 173.9 7 188 21.8
2010-11-25 10:26:23 51°23.845 2°50.687 166.3 6.8 180 20.9
2010-11-25 10:27:23 51°23.73 2°50.694 163.2 6.7 178 19
2010-11-25 10:28:23 51°23.617 2°50.705 161.9 6.6 174 18.9
2010-11-25 10:29:23 51°23.51 2°50.72 164.5 6.5 179 15.1
2010-11-25 10:30:24 51°23.399 2°50.733 166 6.5 177 16.2
2010-11-25 10:31:24 51°23.289 2°50.739 166.3 6.5 176 15.8
2010-11-25 10:32:23 51°23.185 2°50.753 164.8 6.5 172 15.5
2010-11-25 10:33:23 51°23.077 2°50.764 165.3 6.5 179 15.4
2010-11-25 10:34:23 51°22.968 2°50.779 163.7 6.6 172 17.3
2010-11-25 10:35:24 51°22.855 2°50.794 164.8 6.7 177 19.5
2010-11-25 10:36:24 51°22.752 2°50.826 143.6 5.8 152 21.9
2010-11-25 10:37:24 51°22.68 2°50.922 108.9 5.8 133 23.3
2010-11-25 10:38:23 51°22.662 2°51.054 72 5.1 87 23.3
2010-11-25 10:39:24 51°22.704 2°51.155 38.3 4.8 36 22.8
2010-11-25 10:40:23 51°22.763 2°51.257 42.3 5.7 46 22.7
2010-11-25 10:41:24 51°22.831 2°51.362 35.9 5.4 39 22.9
2010-11-25 10:42:24 51°22.908 2°51.455 33.4 5.9 36 23.1
2010-11-25 10:43:24 51°22.988 2°51.552 35 6.1 38 22.9
2010-11-25 10:44:24 51°23.065 2°51.647 34.9 5.7 39 20.4
2010-11-25 10:45:24 51°23.139 2°51.745 35.9 5.5 41 19.2
2010-11-25 10:46:24 51°23.212 2°51.841 34.2 6.2 40 18.8
2010-11-25 10:47:24 51°23.288 2°51.946 34.8 5.8 40 20
2010-11-25 10:48:24 51°23.363 2°52.047 35.6 6.3 39 19.1
2010-11-25 10:49:24 51°23.444 2°52.158 36.5 6.2 43 18.3
2010-11-25 10:50:23 51°23.531 2°52.24 15.8 6.1 13 18.5
2010-11-25 10:51:24 51°23.616 2°52.229 341.7 5.1 333 16.6
2010-11-25 10:52:23 51°23.66 2°52.099 283.2 6.7 270 17.9
2010-11-25 10:53:24 51°23.606 2°51.928 239.6 7.3 235 14.2
2010-11-25 10:54:23 51°23.546 2°51.775 246.3 6.7 239 14.7
2010-11-25 10:55:24 51°23.484 2°51.628 242.5 6.5 231 15.9
2010-11-25 10:56:23 51°23.414 2°51.495 233.8 6.4 221 16.6
2010-11-25 10:57:24 51°23.337 2°51.376 230.5 6.4 223 15.8
2010-11-25 10:58:24 51°23.263 2°51.26 229.3 6.4 225 15
2010-11-25 10:59:23 51°23.176 2°51.165 210.6 6.6 210 16.2
2010-11-25 11:00:23 51°23.081 2°51.078 209.2 6.7 209 15.9
2010-11-25 11:01:24 51°22.983 2°50.994 205.7 6.5 204 16.8
2010-11-25 11:02:24 51°22.883 2°50.939 190.3 6.5 195 19
2010-11-25 11:03:23 51°22.783 2°50.898 189 6.5 191 23.2
2010-11-25 11:04:23 51°22.68 2°50.859 190.8 6.5 196 23.4
2010-11-25 11:05:23 51°22.575 2°50.814 190.9 6.5 194 23
2010-11-25 11:06:24 51°22.47 2°50.765 191.6 6.4 195 22.9
2010-11-25 11:07:23 51°22.37 2°50.719 190.1 6.4 194 23.5
2010-11-25 11:08:23 51°22.271 2°50.671 192.5 6 198 23.4
2010-11-25 11:09:23 51°22.182 2°50.625 199.1 5.7 202 24.2
2010-11-25 11:10:24 51°22.09 2°50.556 206.1 6.1 210 23
2010-11-25 11:11:23 51°21.999 2°50.484 207.6 6.2 205 23.7
2010-11-25 11:12:23 51°21.901 2°50.429 191 6.3 190 24
2010-11-25 11:13:24 51°21.796 2°50.407 177 6.3 184 23.1
2010-11-25 11:14:23 51°21.693 2°50.394 177.5 6.2 184 23.2
2010-11-25 11:15:24 51°21.583 2°50.375 180.7 6.6 189 23.6
2010-11-25 11:16:23 51°21.478 2°50.364 178.7 6.4 186 23.5
2010-11-25 11:17:24 51°21.371 2°50.343 180.9 6.4 189 24.6
2010-11-25 11:18:24 51°21.267 2°50.313 182.1 6.4 190 24.6
2010-11-25 11:19:24 51°21.16 2°50.282 180.3 6.5 189 24.6
2010-11-25 11:20:24 51°21.057 2°50.282 158.3 6.1 174 24.2
2010-11-25 11:21:24 51°20.957 2°50.307 156.1 6.4 176 24.6
2010-11-25 11:22:24 51°20.856 2°50.331 158.2 6.2 176 23.7
2010-11-25 11:23:24 51°20.753 2°50.352 158.9 6.3 173 22.6
2010-11-25 11:24:24 51°20.648 2°50.374 160.1 6.3 170 21.7
2010-11-25 11:25:23 51°20.543 2°50.39 161.9 6.7 178 20.7
2010-11-25 11:26:24 51°20.439 2°50.427 150.6 6.4 168 19.3
2010-11-25 11:27:24 51°20.342 2°50.477 148.1 6.1 162 17.5
2010-11-25 11:28:24 51°20.244 2°50.524 149.8 6.2 167 17.3
2010-11-25 11:29:24 51°20.147 2°50.573 148.8 6.2 164 16.2
2010-11-25 11:30:24 51°20.051 2°50.625 151.1 6 162 15.6
2010-11-25 11:31:24 51°19.958 2°50.678 148.8 5.8 160 13.9
2010-11-25 11:32:24 51°19.864 2°50.733 149.4 6 159 13.7
2010-11-25 11:33:24 51°19.771 2°50.786 150.9 6 159 13.6
2010-11-25 11:34:24 51°19.678 2°50.84 149.9 6 161 13.2
2010-11-25 11:35:24 51°19.583 2°50.897 151.6 6.1 159 13.7
2010-11-25 11:36:24 51°19.488 2°50.946 151.1 6 160 14.9
2010-11-25 11:37:24 51°19.389 2°50.993 151.8 6.1 158 15.6
2010-11-25 11:38:24 51°19.291 2°51.042 149.9 6.2 162 15.8
2010-11-25 11:39:24 51°19.192 2°51.092 150.6 6.3 167 16.4
2010-11-25 11:40:24 51°19.093 2°51.145 149.4 6.2 161 15.9
2010-11-25 11:41:24 51°18.993 2°51.194 150.2 6.3 165 16
2010-11-25 11:42:24 51°18.893 2°51.244 149.1 6.1 158 15.9
2010-11-25 11:43:24 51°18.793 2°51.29 149.5 6.2 164 15.3
2010-11-25 11:44:24 51°18.695 2°51.337 148.7 6.5 167 15.6
2010-11-25 11:45:24 51°18.596 2°51.385 150.1 6.3 164 15.3
2010-11-25 11:46:24 51°18.496 2°51.431 151.2 6.2 168 13.9
2010-11-25 11:47:24 51°18.396 2°51.477 151.1 6.4 165 14.1
2010-11-25 11:48:24 51°18.298 2°51.527 149.8 6.1 163 13.4
2010-11-25 11:49:24 51°18.202 2°51.579 149.3 6.1 160 12.5
2010-11-25 11:50:24 51°18.108 2°51.635 149.3 6 153 12.3
2010-11-25 11:51:24 51°18.014 2°51.691 151.1 5.9 161 11.7
2010-11-25 11:52:24 51°17.921 2°51.75 151.1 6 152 11.5
2010-11-25 11:53:24 51°17.828 2°51.808 149.7 6 157 11.5
2010-11-25 11:54:24 51°17.735 2°51.871 149.8 6 149 11.2
2010-11-25 11:55:24 51°17.649 2°51.95 137.7 5.9 142 11.5
2010-11-25 11:56:24 51°17.566 2°52.039 137.3 6 144 12.3
2010-11-25 11:57:24 51°17.484 2°52.131 140.9 6.1 146 12.7
2010-11-25 11:58:23 51°17.4 2°52.216 139.6 6.2 152 13
2010-11-25 11:59:24 51°17.315 2°52.305 139.7 5.9 147 11.9
2010-11-25 12:00:24 51°17.232 2°52.395 140.4 6 148 11.6
2010-11-25 12:01:24 51°17.151 2°52.485 138.8 6 145 11.7
2010-11-25 12:02:24 51°17.072 2°52.578 133.9 5.8 132 10.9
2010-11-25 12:03:24 51°16.997 2°52.673 133 5.7 140 11.2
2010-11-25 12:04:24 51°16.921 2°52.778 131.1 6.4 140 10.8
2010-11-25 12:05:24 51°16.848 2°52.899 123.6 6.4 131 10.6
2010-11-25 12:06:24 51°16.781 2°53.027 119.5 6.2 123 11.8
2010-11-25 12:07:23 51°16.734 2°53.169 108.2 6.3 119 13.2
2010-11-25 12:08:24 51°16.69 2°53.323 102.7 6.2 107 12.5
2010-11-25 12:09:24 51°16.662 2°53.48 97.2 6.2 101 13
2010-11-25 12:10:24 51°16.639 2°53.64 96.6 6.2 94 12.4
2010-11-25 12:11:24 51°16.614 2°53.799 96.6 6.2 104 13.2
2010-11-25 12:12:23 51°16.587 2°53.955 98.1 6.3 105 13
2010-11-25 12:13:23 51°16.559 2°54.115 98.4 6.2 106 13.2
2010-11-25 12:14:23 51°16.53 2°54.275 98.8 6.3 97 12.6
2010-11-25 12:15:24 51°16.515 2°54.437 86.1 6 93 12.3
2010-11-25 12:16:23 51°16.515 2°54.594 82.4 6 91 12.8
2010-11-25 12:17:24 51°16.518 2°54.756 84.3 6.1 87 12.4
2010-11-25 12:18:24 51°16.504 2°54.918 94 6.3 104 13.1
2010-11-25 12:19:24 51°16.48 2°55.08 96.8 6.2 104 12.6
2010-11-25 12:20:23 51°16.455 2°55.239 96.6 6.3 101 12.4
2010-11-25 12:21:23 51°16.431 2°55.402 98.7 6.4 103 11.8
2010-11-25 12:22:23 51°16.407 2°55.566 95.2 6.5 113 12.3
2010-11-25 12:23:24 51°16.384 2°55.731 95.9 6.4 107 12.3
2010-11-25 12:24:23 51°16.364 2°55.894 96 6.4 102 11.9
2010-11-25 12:25:24 51°16.344 2°56.063 96.4 6.4 102 11.8
2010-11-25 12:26:24 51°16.347 2°56.226 66.2 5.9 73 11.5
2010-11-25 12:27:24 51°16.414 2°56.326 15.5 5.3 22 11.3
2010-11-25 12:28:23 51°16.485 2°56.328 336 4.3 342 11.9
2010-11-25 12:29:23 51°16.54 2°56.221 285 6.1 281 11.3
2010-11-25 12:30:23 51°16.516 2°56.052 249.3 6.7 248 11.5
2010-11-25 12:31:24 51°16.452 2°55.909 231.7 6.7 225 11.7
2010-11-25 12:32:24 51°16.369 2°55.787 227.3 6.7 222 11.9
2010-11-25 12:33:24 51°16.287 2°55.665 227.2 6.7 222 12.3
2010-11-25 12:34:23 51°16.208 2°55.543 229.1 6.6 227 12.2
2010-11-25 12:35:24 51°16.116 2°55.432 216.2 6.8 212 12.5
2010-11-25 12:36:24 51°16.016 2°55.343 213 7 204 12.9
2010-11-25 12:37:23 51°15.917 2°55.26 212.7 7 204 12.8
2010-11-25 12:38:23 51°15.818 2°55.171 215.8 7 212 11.6
2010-11-25 12:39:24 51°15.719 2°55.077 217.1 6.8 206 11.9
2010-11-25 12:40:23 51°15.624 2°54.987 215.8 6.7 216 11.5
2010-11-25 12:41:24 51°15.523 2°54.897 213.7 7 208 12.1
2010-11-25 12:42:23 51°15.428 2°54.809 217.6 6.6 212 11.3
2010-11-25 12:43:24 51°15.332 2°54.722 217 6.6 206 11.8
2010-11-25 12:44:23 51°15.244 2°54.637 215.3 6.3 214 10.6
2010-11-25 12:45:24 51°15.152 2°54.554 212.6 6.1 210 10.9
2010-11-25 12:46:24 51°15.049 2°54.511 199.7 6.5 190 12.2
2010-11-25 12:47:24 51°14.944 2°54.479 195.4 6.4 196 13.7
2010-11-25 12:48:23 51°14.844 2°54.431 212.3 6.4 205 14.4
2010-11-25 12:49:23 51°14.76 2°54.343 222.1 6 218 12.9
2010-11-25 12:50:24 51°14.677 2°54.249 219.3 6 213 12.7
2010-11-25 12:51:24 51°14.588 2°54.169 214.1 6.1 213 12.6
2010-11-25 12:52:24 51°14.501 2°54.089 217.4 6 210 12.6
2010-11-25 12:53:24 51°14.414 2°54.006 220.9 5.9 219 12
2010-11-25 12:54:24 51°14.345 2°53.901 233.1 5.8 232 12.1
2010-11-25 12:55:24 51°14.282 2°53.787 232.3 5.8 229 11.9
2010-11-25 12:56:23 51°14.217 2°53.676 232.6 6 217 12.9
2010-11-25 12:57:24 51°14.149 2°53.562 231.6 5.9 221 12.3
2010-11-25 12:58:23 51°14.084 2°53.451 231.2 5.9 224 12.2
2010-11-25 12:59:23 51°14.018 2°53.343 230.9 5.6 222 12.7
2010-11-25 13:00:24 51°13.962 2°53.225 242.3 5.4 249 12.3
2010-11-25 13:01:24 51°13.924 2°53.095 247.8 5.4 247 12.8
2010-11-25 13:02:24 51°13.883 2°52.957 242 6.1 237 13.3
2010-11-25 13:03:24 51°13.833 2°52.812 241.8 6.4 239 12.9
2010-11-25 13:04:23 51°13.784 2°52.665 242.2 6.3 240 -999
2010-11-25 13:05:23 51°13.736 2°52.519 243.9 6.2 245 13
2010-11-25 13:06:24 51°13.687 2°52.37 242.5 6.3 247 12.8
2010-11-25 13:07:23 51°13.64 2°52.225 241.7 6.4 240 14.1
2010-11-25 13:08:23 51°13.591 2°52.078 242.5 6.4 246 13.6
2010-11-25 13:09:24 51°13.542 2°51.927 242 6.3 238 13.5
2010-11-25 13:10:24 51°13.495 2°51.78 242.5 6.2 245 14
2010-11-25 13:11:24 51°13.447 2°51.632 242.1 6.2 246 13.3
2010-11-25 13:12:24 51°13.4 2°51.489 243.1 6 246 13.8
2010-11-25 13:13:24 51°13.352 2°51.346 243.2 6.3 237 14.8
2010-11-25 13:14:24 51°13.306 2°51.201 243.7 6.1 245 13.9
2010-11-25 13:15:24 51°13.259 2°51.057 241.8 6.1 242 14.1
2010-11-25 13:16:24 51°13.208 2°50.918 242.3 6.1 238 14
2010-11-25 13:17:24 51°13.159 2°50.779 241.5 6 240 14.6
2010-11-25 13:18:24 51°13.108 2°50.644 243.4 5.9 239 14.7
2010-11-25 13:19:24 51°13.062 2°50.505 240 5.9 237 14.3
2010-11-25 13:20:24 51°13.007 2°50.375 238.3 5.9 237 14
2010-11-25 13:21:24 51°12.952 2°50.243 237.7 6 235 14.3
2010-11-25 13:22:23 51°12.898 2°50.112 239 6.1 232 14.4
2010-11-25 13:23:24 51°12.845 2°49.978 240.3 5.9 238 15
2010-11-25 13:24:23 51°12.792 2°49.846 237.7 6.1 232 14.7
2010-11-25 13:25:24 51°12.738 2°49.714 239.2 5.8 238 14.9
2010-11-25 13:26:24 51°12.685 2°49.585 239.3 5.8 230 14.7
2010-11-25 13:27:24 51°12.632 2°49.462 240.2 5.7 244 14.6
2010-11-25 13:28:23 51°12.58 2°49.334 239.4 6.1 232 14.9
2010-11-25 13:29:23 51°12.526 2°49.205 239.8 5.9 233 15.3
2010-11-25 13:30:24 51°12.473 2°49.074 240 5.8 239 14.5
2010-11-25 13:31:24 51°12.42 2°48.946 239.1 5.8 242 13.6
2010-11-25 13:32:24 51°12.364 2°48.822 238.9 5.8 238 14.9
2010-11-25 13:33:23 51°12.312 2°48.7 238.2 5.6 234 14.9
2010-11-25 13:34:24 51°12.256 2°48.576 239.2 5.5 232 14.8
2010-11-25 13:35:23 51°12.205 2°48.457 239.3 5.7 231 15.3
2010-11-25 13:36:23 51°12.151 2°48.333 238.5 5.9 228 14.4
2010-11-25 13:37:23 51°12.098 2°48.213 239.7 5.4 231 14.5
2010-11-25 13:38:24 51°12.056 2°48.082 247.8 5.5 255 13.6
2010-11-25 13:39:23 51°12.026 2°47.95 250.5 5.5 259 13.6
2010-11-25 13:40:24 51°11.996 2°47.808 249.7 5.8 249 14
2010-11-25 13:41:24 51°11.964 2°47.666 249 5.7 251 14.4
2010-11-25 13:42:23 51°11.931 2°47.523 250.3 5.9 252 14.8
2010-11-25 13:43:24 51°11.897 2°47.375 248.5 5.7 251 14
2010-11-25 13:44:24 51°11.861 2°47.238 247.9 5.6 243 15.5
2010-11-25 13:45:23 51°11.827 2°47.098 249.7 5.8 248 15.5
2010-11-25 13:46:24 51°11.793 2°46.952 249.7 5.8 247 14.5
2010-11-25 13:47:24 51°11.759 2°46.808 249 5.8 247 15.6
2010-11-25 13:48:24 51°11.726 2°46.662 250 5.9 251 15.4
2010-11-25 13:49:24 51°11.689 2°46.518 247.7 5.9 242 15.8
2010-11-25 13:50:24 51°11.656 2°46.372 251 6.1 251 15.6
2010-11-25 13:51:24 51°11.622 2°46.222 249.5 6.1 251 15.3
2010-11-25 13:52:24 51°11.585 2°46.069 248.4 6.2 248 15.4
2010-11-25 13:53:24 51°11.55 2°45.917 250.5 6 251 15.4
2010-11-25 13:54:24 51°11.514 2°45.765 249 6.2 255 15.6
2010-11-25 13:55:24 51°11.477 2°45.61 249 6.3 251 15.5
2010-11-25 13:56:24 51°11.438 2°45.456 249.5 6 251 15.8
2010-11-25 13:57:24 51°11.401 2°45.302 248.6 6.3 248 15.6
2010-11-25 13:58:24 51°11.362 2°45.144 249.3 6.4 250 14.8
2010-11-25 13:59:24 51°11.324 2°44.984 249.3 6.5 250 15.5
2010-11-25 14:00:24 51°11.285 2°44.821 249.8 6.7 254 15.6
2010-11-25 14:01:24 51°11.246 2°44.657 249.2 6.6 248 15.5
2010-11-25 14:02:24 51°11.208 2°44.494 249.3 6.5 254 15.4
2010-11-25 14:03:24 51°11.17 2°44.334 248.3 6.5 251 14.4
2010-11-25 14:04:24 51°11.133 2°44.173 250.6 6.6 251 15.1
2010-11-25 14:05:24 51°11.096 2°44.012 249.8 6.5 246 14.8
2010-11-25 14:06:24 51°11.034 2°43.879 216.2 6.6 207 15.3
2010-11-25 14:07:24 51°10.917 2°43.89 165.6 8.1 152 14.6
2010-11-25 14:08:24 51°10.826 2°44.057 124.2 8.9 114 12.7
2010-11-25 14:09:23 51°10.803 2°44.29 89.1 9.3 83 12.6
2010-11-25 14:10:24 51°10.848 2°44.522 66.2 8.7 65 12.6
2010-11-25 14:11:23 51°10.899 2°44.738 70 8.9 73 13
2010-11-25 14:12:24 51°10.95 2°44.952 65.4 7.9 69 12.7
2010-11-25 14:13:24 51°11.007 2°45.132 58.3 7.3 60 12.5
2010-11-25 14:14:24 51°11.064 2°45.298 57.3 6.8 64 13
2010-11-25 14:15:24 51°11.119 2°45.461 57.5 7.1 63 12.7
2010-11-25 14:16:24 51°11.174 2°45.627 56.1 6.9 58 13.2
2010-11-25 14:17:24 51°11.235 2°45.791 54.5 7.4 56 12.1
2010-11-25 14:18:24 51°11.299 2°45.958 55.2 7.5 58 13.4
2010-11-25 14:19:24 51°11.362 2°46.127 55.6 7.3 59 12.9
2010-11-25 14:20:24 51°11.426 2°46.299 54.8 7.5 58 13.4
2010-11-25 14:21:24 51°11.492 2°46.472 56.2 7.5 59 13.8
2010-11-25 14:22:24 51°11.559 2°46.646 56.7 7.7 60 13.5
2010-11-25 14:23:23 51°11.622 2°46.817 57.1 7.5 61 13.6
2010-11-25 14:24:24 51°11.687 2°46.993 55.3 7.6 61 14.5
2010-11-25 14:25:24 51°11.75 2°47.163 56.1 7.2 55 14.2
2010-11-25 14:26:24 51°11.809 2°47.32 55 6.6 59 14.2
2010-11-25 14:27:24 51°11.866 2°47.468 53.3 6.6 59 14.2
2010-11-25 14:28:24 51°11.924 2°47.614 54.4 6.6 57 14.2
2010-11-25 14:29:24 51°11.977 2°47.758 56.9 6 60 14.3
2010-11-25 14:30:24 51°12.028 2°47.894 54.5 5.9 54 14.5
2010-11-25 14:31:24 51°12.081 2°48.027 54.5 5.9 56 15
2010-11-25 14:32:24 51°12.133 2°48.163 53.7 6 56 14.5
2010-11-25 14:33:24 51°12.184 2°48.299 56.7 6 63 14.7
2010-11-25 14:34:24 51°12.234 2°48.432 55.3 6 57 14.8
2010-11-25 14:35:24 51°12.286 2°48.568 55.6 6.1 58 14.9
2010-11-25 14:36:24 51°12.339 2°48.706 55.3 6.2 58 15.2
2010-11-25 14:37:24 51°12.393 2°48.847 55.1 6.3 60 14.4
2010-11-25 14:38:24 51°12.447 2°48.986 54.5 6.3 60 15.3
2010-11-25 14:39:24 51°12.501 2°49.127 55 6.3 59 14.9
2010-11-25 14:40:24 51°12.553 2°49.268 54.8 6.1 58 14.7
2010-11-25 14:41:24 51°12.608 2°49.408 55.2 6.1 56 14.9
2010-11-25 14:42:24 51°12.659 2°49.543 56.1 5.7 55 14.8
2010-11-25 14:43:24 51°12.712 2°49.679 55.2 6 59 14.4
2010-11-25 14:44:24 51°12.762 2°49.813 54.7 5.9 60 15
2010-11-25 14:45:24 51°12.815 2°49.95 55.7 6.2 59 13.9
2010-11-25 14:46:24 51°12.867 2°50.085 55.4 5.9 60 14
2010-11-25 14:47:24 51°12.918 2°50.217 53.7 5.8 57 14.7
2010-11-25 14:48:24 51°12.97 2°50.35 54.9 5.9 55 14.6
2010-11-25 14:49:24 51°13.021 2°50.485 56 5.8 57 14.8
2010-11-25 14:50:24 51°13.071 2°50.62 56.4 5.7 58 13.9
2010-11-25 14:51:24 51°13.121 2°50.751 56 5.8 60 14.4
2010-11-25 14:52:24 51°13.171 2°50.886 55.3 6 58 15
2010-11-25 14:53:24 51°13.224 2°51.02 55.2 6 58 14.1
2010-11-25 14:54:24 51°13.274 2°51.155 55.3 5.8 57 13.9
2010-11-25 14:55:24 51°13.323 2°51.288 56 5.8 62 14.6
2010-11-25 14:56:24 51°13.371 2°51.422 56.1 5.8 64 14.9
2010-11-25 14:57:24 51°13.421 2°51.554 55.3 5.9 62 14.1
2010-11-25 14:58:24 51°13.47 2°51.684 55.2 5.8 59 13.8
2010-11-25 14:59:24 51°13.517 2°51.817 56 5.7 61 14
2010-11-25 15:00:24 51°13.563 2°51.948 55.6 5.4 57 14.1
2010-11-25 15:01:24 51°13.607 2°52.075 54.6 5.4 62 13.8
2010-11-25 15:02:24 51°13.654 2°52.205 55.2 5.7 59 14
2010-11-25 15:03:24 51°13.703 2°52.337 54.8 5.8 58 13.7
2010-11-25 15:04:24 51°13.753 2°52.477 55.4 6.1 60 13.8
2010-11-25 15:05:24 51°13.803 2°52.614 54.5 5.9 58 13.9
2010-11-25 15:06:24 51°13.851 2°52.752 56 5.9 63 14.3
2010-11-25 15:07:24 51°13.898 2°52.892 57.4 6.1 62 13.6
2010-11-25 15:08:24 51°13.946 2°53.031 55.6 5.9 62 13.2
2010-11-25 15:09:24 51°13.995 2°53.167 55 5.9 59 13.2
2010-11-25 15:10:24 51°14.043 2°53.306 54.5 5.9 63 13.3
2010-11-25 15:11:24 51°14.086 2°53.444 56.7 5.9 66 12.2
2010-11-25 15:12:24 51°14.129 2°53.575 55.2 5.5 60 12.7
2010-11-25 15:13:24 51°14.171 2°53.703 54.3 5.3 64 12.2
2010-11-25 15:14:24 51°14.204 2°53.811 53.1 3.7 67 12.7
2010-11-25 15:15:24 51°14.223 2°53.889 53 2.9 75 12.5
2010-11-25 15:16:24 51°14.238 2°53.958 46.6 3.2 60 12.4
2010-11-25 15:17:24 51°14.275 2°54.027 11.9 3.4 40 12.4
2010-11-25 15:18:24 51°14.316 2°54.073 358.3 2.8 29 13
2010-11-25 15:19:24 51°14.411 2°54.095 347.3 8.3 354 13.1
2010-11-25 15:20:24 51°14.561 2°54.101 356.2 6.8 8 13.4
2010-11-25 15:21:24 51°14.645 2°54.132 355 4.2 18 14.2
2010-11-25 15:22:24 51°14.694 2°54.172 357.7 2.9 37 13.1
2010-11-25 15:23:23 51°14.718 2°54.215 3.7 2.1 67 13.2
2010-11-25 15:24:24 51°14.743 2°54.268 4.2 3.1 43 13.2
2010-11-25 15:25:24 51°14.789 2°54.297 332.4 2.8 4 13.5
2010-11-25 15:26:24 51°14.823 2°54.29 308.4 1.4 342 13.4
2010-11-25 15:27:24 51°14.839 2°54.278 299.5 1 327 13.7
2010-11-25 15:28:24 51°14.858 2°54.26 299.9 1.7 324 12.7
2010-11-25 15:29:24 51°14.869 2°54.226 258.5 1.9 256 12.8
2010-11-25 15:30:24 51°14.827 2°54.21 182.6 3.7 157 13.6
2010-11-25 15:31:24 51°14.786 2°54.329 109.8 7.2 107 13.6
2010-11-25 15:32:24 51°14.732 2°54.574 114.8 11.5 118 14.4
2010-11-25 15:33:24 51°14.626 2°54.861 124.9 13.3 125 14.8
2010-11-25 15:34:24 51°14.467 2°55.089 148.7 12.9 147 14.7
2010-11-25 15:35:24 51°14.301 2°55.256 145.2 10.3 147 13.8
2010-11-25 15:36:24 51°14.174 2°55.37 151.2 8 156 14.3
2010-11-25 15:37:24 51°14.059 2°55.453 152.2 7.7 155 13.8
2010-11-25 15:38:24 51°13.942 2°55.54 153.1 7.8 156 14.8
2010-11-25 15:39:24 51°13.83 2°55.623 151.3 6.6 153 14.1
2010-11-25 15:40:24 51°13.758 2°55.72 130.3 5.4 133 13.1
2010-11-25 15:41:24 51°13.706 2°55.821 125.2 4.4 127 14.1
2010-11-25 15:42:24 51°13.673 2°55.911 109 3.5 110 12.1
2010-11-25 15:43:24 51°13.662 2°55.959 112.8 0.5 115 10.6
2010-11-25 15:44:24 51°13.661 2°55.962 106.3 -999 3 10.6
2010-11-25 15:45:27 51°13.662 2°55.963 119.3 0.1 349 10.4
2010-11-25 15:46:28 51°13.661 2°55.964 125.5 -999 203 -999
2010-11-25 15:47:28 51°13.661 2°55.962 129.4 0.1 46 -999